createdAt,value
2022-09-17T00:01:31.183Z,97847.41
2022-09-17T00:04:04.606Z,97836.22
2022-09-17T00:06:35.658Z,97853.09
2022-09-17T00:09:05.600Z,97848.41
2022-09-17T00:11:36.190Z,97840.59
2022-09-17T00:14:05.127Z,97844.19
2022-09-17T00:16:37.563Z,97847.69
2022-09-17T00:19:06.667Z,97848.44
2022-09-17T00:21:33.543Z,97854.19
2022-09-17T00:24:05.335Z,97849.59
2022-09-17T00:26:33.482Z,97850.84
2022-09-17T00:29:01.231Z,97853.66
2022-09-17T00:31:29.719Z,97851.47
2022-09-17T00:33:58.590Z,97851.16
2022-09-17T00:36:25.768Z,97850.47
2022-09-17T00:38:56.243Z,97850.50
2022-09-17T00:41:27.570Z,97850.53
2022-09-17T00:44:01.563Z,97862.00
2022-09-17T00:46:42.541Z,97849.44
2022-09-17T00:49:22.721Z,97849.91
2022-09-17T00:52:10.025Z,97854.94
2022-09-17T00:54:45.059Z,97854.53
2022-09-17T00:57:12.423Z,97857.31
2022-09-17T00:59:39.423Z,97851.03
2022-09-17T01:02:06.620Z,97848.91
2022-09-17T01:04:33.692Z,97855.78
2022-09-17T01:07:28.412Z,97857.31
2022-09-17T01:10:36.235Z,97851.28
2022-09-17T01:13:31.778Z,97850.25
2022-09-17T01:17:01.766Z,97844.09
2022-09-17T01:20:25.609Z,97845.69
2022-09-17T01:23:41.595Z,97847.97
2022-09-17T01:26:17.428Z,97850.03
2022-09-17T01:29:25.994Z,97852.44
2022-09-17T01:32:25.339Z,97857.47
2022-09-17T01:35:12.265Z,97855.75
2022-09-17T01:38:12.327Z,97857.09
2022-09-17T01:40:55.971Z,97856.50
2022-09-17T01:43:34.874Z,97857.78
2022-09-17T01:46:15.053Z,97857.47
2022-09-17T01:48:47.416Z,97861.13
2022-09-17T01:51:26.855Z,97871.75
2022-09-17T01:54:03.436Z,97867.44
2022-09-17T01:57:04.621Z,97870.16
2022-09-17T01:59:41.820Z,97863.06
2022-09-17T02:02:49.033Z,97868.00
2022-09-17T02:05:31.090Z,97867.00
2022-09-17T02:08:15.149Z,97858.56
2022-09-17T02:11:06.984Z,97861.72
2022-09-17T02:14:12.860Z,97859.16
2022-09-17T02:16:50.373Z,97865.84
2022-09-17T02:19:35.602Z,97872.50
2022-09-17T02:22:14.239Z,97868.50
2022-09-17T02:25:05.393Z,97870.75
2022-09-17T02:27:54.969Z,97865.03
2022-09-17T02:30:21.886Z,97864.25
2022-09-17T02:32:49.023Z,97871.41
2022-09-17T02:35:16.557Z,97875.97
2022-09-17T02:37:44.607Z,97882.16
2022-09-17T02:40:14.952Z,97871.88
2022-09-17T02:43:22.910Z,97869.09
2022-09-17T02:46:20.355Z,97872.38
2022-09-17T02:49:35.022Z,97868.94
2022-09-17T02:52:34.658Z,97861.38
2022-09-17T02:56:03.480Z,97856.63
2022-09-17T02:58:53.661Z,97869.53
2022-09-17T03:01:35.014Z,97862.91
2022-09-17T03:04:05.078Z,97863.38
2022-09-17T03:06:32.324Z,97852.19
2022-09-17T03:08:59.229Z,97855.19
2022-09-17T03:11:26.172Z,97855.66
2022-09-17T03:13:53.126Z,97848.13
2022-09-17T03:16:20.054Z,97858.00
2022-09-17T03:18:46.977Z,97859.78
2022-09-17T03:21:14.379Z,97855.38
2022-09-17T03:23:41.306Z,97860.59
2022-09-17T03:26:08.273Z,97860.78
2022-09-17T03:28:35.191Z,97862.25
2022-09-17T03:31:02.134Z,97861.06
2022-09-17T03:33:29.074Z,97866.88
2022-09-17T03:35:55.930Z,97868.69
2022-09-17T03:38:22.923Z,97866.25
2022-09-17T03:41:07.538Z,97857.69
2022-09-17T03:43:34.963Z,97865.84
2022-09-17T03:46:01.933Z,97868.81
2022-09-17T03:48:29.629Z,97864.19
2022-09-17T03:50:56.848Z,97869.44
2022-09-17T03:53:23.960Z,97873.56
2022-09-17T03:55:51.028Z,97879.09
2022-09-17T03:58:17.921Z,97877.56
2022-09-17T04:00:44.968Z,97874.81
2022-09-17T04:03:12.216Z,97877.19
2022-09-17T04:05:39.117Z,97877.63
2022-09-17T04:08:05.994Z,97877.91
2022-09-17T04:10:33.024Z,97879.63
2022-09-17T04:12:59.911Z,97878.16
2022-09-17T04:15:26.866Z,97873.41
2022-09-17T04:17:58.027Z,97868.44
2022-09-17T04:20:26.092Z,97879.56
2022-09-17T04:22:53.856Z,97878.28
2022-09-17T04:25:20.791Z,97875.03
2022-09-17T04:27:48.684Z,97878.72
2022-09-17T04:30:15.788Z,97873.81
2022-09-17T04:32:45.164Z,97880.38
2022-09-17T04:35:13.119Z,97873.38
2022-09-17T04:37:40.389Z,97873.81
2022-09-17T04:40:08.480Z,97882.69
2022-09-17T04:42:35.468Z,97882.28
2022-09-17T04:45:02.345Z,97894.16
2022-09-17T04:47:29.289Z,97897.34
2022-09-17T04:49:56.172Z,97907.50
2022-09-17T04:52:24.814Z,97901.50
2022-09-17T04:54:54.546Z,97900.03
2022-09-17T04:57:23.496Z,97908.94
2022-09-17T04:59:50.424Z,97902.81
2022-09-17T05:02:18.104Z,97908.16
2022-09-17T05:04:45.030Z,97899.50
2022-09-17T05:07:13.953Z,97902.56
2022-09-17T05:09:45.236Z,97907.41
2022-09-17T05:12:12.136Z,97916.13
2022-09-17T05:14:39.084Z,97920.03
2022-09-17T05:17:06.035Z,97924.13
2022-09-17T05:19:32.921Z,97923.00
2022-09-17T05:21:59.970Z,97924.31
2022-09-17T05:24:27.319Z,97923.63
2022-09-17T05:26:54.219Z,97924.09
2022-09-17T05:29:22.447Z,97932.94
2022-09-17T05:31:49.408Z,97924.84
2022-09-17T05:34:16.376Z,97933.56
2022-09-17T05:36:43.263Z,97936.81
2022-09-17T05:39:10.124Z,97939.47
2022-09-17T05:41:37.039Z,97930.91
2022-09-17T05:44:04.108Z,97932.31
2022-09-17T05:46:31.360Z,97944.94
2022-09-17T05:48:58.718Z,97944.16
2022-09-17T05:51:25.694Z,97945.03
2022-09-17T05:53:55.426Z,97939.41
2022-09-17T05:56:23.941Z,97941.91
2022-09-17T05:58:51.165Z,97950.78
2022-09-17T06:01:18.325Z,97958.47
2022-09-17T06:03:45.262Z,97957.13
2022-09-17T06:06:12.154Z,97951.81
2022-09-17T06:08:39.083Z,97971.41
2022-09-17T06:11:07.521Z,97968.72
2022-09-17T06:13:35.609Z,97967.94
2022-09-17T06:16:03.743Z,97970.09
2022-09-17T06:18:31.841Z,97975.44
2022-09-17T06:21:02.140Z,97966.44
2022-09-17T06:23:35.118Z,97963.34
2022-09-17T06:26:03.272Z,97974.47
2022-09-17T06:28:30.260Z,97972.47
2022-09-17T06:31:02.695Z,97972.88
2022-09-17T06:33:31.652Z,97980.19
2022-09-17T06:36:08.522Z,97982.19
2022-09-17T06:38:38.131Z,97974.75
2022-09-17T06:41:05.332Z,97975.00
2022-09-17T06:43:32.239Z,97977.03
2022-09-17T06:46:02.176Z,97979.34
2022-09-17T06:48:30.882Z,97981.47
2022-09-17T06:51:05.584Z,97987.81
2022-09-17T06:53:33.031Z,97993.91
2022-09-17T06:56:05.912Z,97983.00
2022-09-17T06:58:34.353Z,97993.25
2022-09-17T07:01:02.368Z,97995.66
2022-09-17T07:03:30.890Z,97987.50
2022-09-17T07:05:58.478Z,97986.91
2022-09-17T07:08:26.179Z,97986.31
2022-09-17T07:10:57.224Z,97987.97
2022-09-17T07:13:25.779Z,97990.44
2022-09-17T07:15:58.132Z,97990.09
2022-09-17T07:18:26.124Z,98003.16
2022-09-17T07:20:58.503Z,98002.19
2022-09-17T07:23:29.362Z,98012.91
2022-09-17T07:25:59.495Z,98011.75
2022-09-17T07:28:27.478Z,98012.09
2022-09-17T07:30:55.666Z,98023.28
2022-09-17T07:33:25.644Z,98018.81
2022-09-17T07:36:00.930Z,98016.97
2022-09-17T07:38:29.673Z,98014.84
2022-09-17T07:41:07.629Z,98016.78
2022-09-17T07:43:35.837Z,98027.09
2022-09-17T07:46:05.600Z,98023.28
2022-09-17T07:48:33.425Z,98033.84
2022-09-17T07:51:00.566Z,98038.19
2022-09-17T07:53:28.064Z,98035.44
2022-09-17T07:55:57.668Z,98046.31
2022-09-17T07:58:31.146Z,98043.06
2022-09-17T08:01:08.268Z,98046.34
2022-09-17T08:03:36.537Z,98044.72
2022-09-17T08:06:09.593Z,98051.16
2022-09-17T08:08:38.589Z,98041.50
2022-09-17T08:11:38.135Z,98051.59
2022-09-17T08:14:10.359Z,98053.03
2022-09-17T08:16:37.379Z,98048.84
2022-09-17T08:19:04.507Z,98052.06
2022-09-17T08:21:31.662Z,98053.03
2022-09-17T08:23:58.880Z,98047.25
2022-09-17T08:26:26.753Z,98039.13
2022-09-17T08:28:56.369Z,98043.25
2022-09-17T08:31:26.627Z,98051.00
2022-09-17T08:33:54.036Z,98052.88
2022-09-17T08:36:22.905Z,98059.59
2022-09-17T08:38:54.073Z,98050.56
2022-09-17T08:41:45.983Z,98055.53
2022-09-17T08:44:23.459Z,98041.66
2022-09-17T08:47:01.308Z,98045.72
2022-09-17T08:49:36.573Z,98050.34
2022-09-17T08:52:54.192Z,98050.50
2022-09-17T08:55:46.407Z,98063.59
2022-09-17T08:58:52.751Z,98074.06
2022-09-17T09:01:44.814Z,98070.19
2022-09-17T09:04:39.100Z,98063.47
2022-09-17T09:07:17.318Z,98064.34
2022-09-17T09:10:04.344Z,98064.59
2022-09-17T09:12:35.083Z,98065.72
2022-09-17T09:15:15.747Z,98061.78
2022-09-17T09:17:46.697Z,98063.44
2022-09-17T09:20:32.571Z,98060.47
2022-09-17T09:23:13.895Z,98063.44
2022-09-17T09:26:00.242Z,98045.16
2022-09-17T09:28:53.574Z,98048.50
2022-09-17T09:31:56.230Z,98049.63
2022-09-17T09:34:23.919Z,98046.13
2022-09-17T09:36:52.423Z,98038.88
2022-09-17T09:39:26.128Z,98050.41
2022-09-17T09:42:05.827Z,98045.19
2022-09-17T09:44:32.858Z,98044.00
2022-09-17T09:47:39.120Z,98035.75
2022-09-17T09:50:48.703Z,98049.88
2022-09-17T09:53:46.092Z,98053.91
2022-09-17T09:56:34.110Z,98052.75
2022-09-17T09:59:01.485Z,98056.31
2022-09-17T10:01:41.765Z,98062.50
2022-09-17T10:04:29.287Z,98055.41
2022-09-17T10:07:07.200Z,98052.97
2022-09-17T10:09:38.435Z,98048.50
2022-09-17T10:12:11.425Z,98044.19
2022-09-17T10:14:46.703Z,98040.72
2022-09-17T10:17:26.910Z,98045.84
2022-09-17T10:19:59.867Z,98046.56
2022-09-17T10:22:47.055Z,98043.59
2022-09-17T10:25:34.936Z,98045.63
2022-09-17T10:28:06.144Z,98039.47
2022-09-17T10:30:33.231Z,98029.97
2022-09-17T10:33:40.979Z,98030.88
2022-09-17T10:36:14.717Z,98027.06
2022-09-17T10:38:46.157Z,98030.63
2022-09-17T10:41:14.587Z,98035.97
2022-09-17T10:43:42.264Z,98027.50
2022-09-17T10:46:17.174Z,98018.81
2022-09-17T10:49:11.347Z,98025.63
2022-09-17T10:51:39.365Z,98030.50
2022-09-17T10:54:23.506Z,98021.38
2022-09-17T10:56:57.318Z,98036.78
2022-09-17T10:59:53.497Z,98032.16
2022-09-17T11:03:24.318Z,98034.13
2022-09-17T11:06:15.384Z,98018.59
2022-09-17T11:09:10.068Z,98007.97
2022-09-17T11:12:04.160Z,98011.53
2022-09-17T11:14:51.177Z,98007.59
2022-09-17T11:17:55.170Z,98006.44
2022-09-17T11:20:53.467Z,98001.66
2022-09-17T11:23:52.585Z,98002.03
2022-09-17T11:26:55.840Z,98025.31
2022-09-17T11:29:51.877Z,98071.56
2022-09-17T11:32:49.780Z,98064.66
2022-09-17T11:35:24.173Z,98056.75
2022-09-17T11:38:20.839Z,98037.34
2022-09-17T11:41:08.108Z,98015.41
2022-09-17T11:43:38.819Z,98106.34
2022-09-17T11:46:23.725Z,98042.09
2022-09-17T11:49:13.672Z,98009.41
2022-09-17T11:52:11.210Z,98012.38
2022-09-17T11:54:55.243Z,98015.16
2022-09-17T11:57:35.398Z,98018.94
2022-09-17T12:00:18.565Z,98015.16
2022-09-17T12:03:10.879Z,98005.94
2022-09-17T12:05:48.806Z,98001.31
2022-09-17T12:08:22.903Z,97990.63
2022-09-17T12:11:10.233Z,97986.19
2022-09-17T12:13:51.499Z,97984.91
2022-09-17T12:16:37.078Z,97977.06
2022-09-17T12:19:37.684Z,97975.22
2022-09-17T12:22:21.393Z,97980.22
2022-09-17T12:24:52.237Z,97964.69
2022-09-17T12:27:51.383Z,97964.63
2022-09-17T12:30:23.357Z,97949.88
2022-09-17T12:33:07.931Z,97952.25
2022-09-17T12:36:33.079Z,97938.88
2022-09-17T12:39:05.903Z,97956.28
2022-09-17T12:42:13.077Z,97950.81
2022-09-17T12:44:50.608Z,97951.34
2022-09-17T12:48:00.906Z,97971.94
2022-09-17T12:51:04.265Z,97969.56
2022-09-17T12:53:43.917Z,97982.72
2022-09-17T12:56:37.758Z,97974.84
2022-09-17T12:59:19.289Z,97965.81
2022-09-17T13:02:16.402Z,97962.56
2022-09-17T13:05:17.221Z,97961.38
2022-09-17T13:08:08.030Z,97970.44
2022-09-17T13:10:42.035Z,97967.31
2022-09-17T13:13:25.304Z,97979.31
2022-09-17T13:16:00.970Z,97974.09
2022-09-17T13:18:41.729Z,97958.72
2022-09-17T13:21:24.754Z,97965.78
2022-09-17T13:23:55.164Z,97977.84
2022-09-17T13:26:35.611Z,97974.00
2022-09-17T13:29:04.414Z,97981.22
2022-09-17T13:31:34.565Z,97983.69
2022-09-17T13:34:06.531Z,97990.72
2022-09-17T13:36:47.016Z,97982.97
2022-09-17T13:39:40.451Z,97985.38
2022-09-17T13:42:28.914Z,97985.09
2022-09-17T13:45:13.305Z,97992.28
2022-09-17T13:48:05.815Z,97985.94
2022-09-17T13:50:37.693Z,97993.16
2022-09-17T13:53:16.738Z,97980.72
2022-09-17T13:55:54.691Z,97980.84
2022-09-17T13:58:21.718Z,97986.09
2022-09-17T14:01:12.057Z,97988.59
2022-09-17T14:03:44.430Z,97988.78
2022-09-17T14:06:11.430Z,97985.53
2022-09-17T14:08:44.544Z,97990.44
2022-09-17T14:11:23.809Z,97985.91
2022-09-17T14:13:58.398Z,97996.66
2022-09-17T14:16:36.840Z,97992.34
2022-09-17T14:19:16.044Z,97989.34
2022-09-17T14:22:06.061Z,97991.41
2022-09-17T14:24:52.327Z,97993.44
2022-09-17T14:27:43.685Z,97980.97
2022-09-17T14:30:24.103Z,97993.06
2022-09-17T14:33:19.500Z,97991.16
2022-09-17T14:35:52.717Z,97981.03
2022-09-17T14:38:45.869Z,97983.13
2022-09-17T14:41:12.982Z,97983.88
2022-09-17T14:44:01.445Z,97977.31
2022-09-17T14:46:41.263Z,97980.44
2022-09-17T14:49:24.565Z,97974.69
2022-09-17T14:51:53.739Z,97973.56
2022-09-17T14:54:26.022Z,97965.03
2022-09-17T14:56:57.543Z,97972.69
2022-09-17T14:59:42.020Z,97967.41
2022-09-17T15:02:43.765Z,97973.56
2022-09-17T15:05:34.070Z,97969.22
2022-09-17T15:08:10.135Z,97973.31
2022-09-17T15:10:49.072Z,97969.38
2022-09-17T15:13:21.928Z,97967.31
2022-09-17T15:16:18.011Z,97968.06
2022-09-17T15:19:00.097Z,97968.63
2022-09-17T15:21:50.213Z,97963.94
2022-09-17T15:24:50.385Z,97959.75
2022-09-17T15:27:31.837Z,97960.72
2022-09-17T15:30:16.252Z,97965.53
2022-09-17T15:32:56.605Z,97959.19
2022-09-17T15:35:31.577Z,97964.81
2022-09-17T15:38:24.097Z,97967.38
2022-09-17T15:40:52.024Z,97963.50
2022-09-17T15:43:33.972Z,97965.78
2022-09-17T15:46:26.660Z,97958.22
2022-09-17T15:49:02.468Z,97962.75
2022-09-17T15:51:35.956Z,97973.19
2022-09-17T15:54:05.628Z,97966.91
2022-09-17T15:56:39.373Z,97960.81
2022-09-17T15:59:31.333Z,97970.16
2022-09-17T16:02:01.579Z,97967.31
2022-09-17T16:04:31.698Z,97964.53
2022-09-17T16:07:07.856Z,97969.25
2022-09-17T16:09:53.898Z,97969.16
2022-09-17T16:12:25.299Z,97970.41
2022-09-17T16:14:57.794Z,97962.84
2022-09-17T16:17:46.675Z,97967.69
2022-09-17T16:20:17.789Z,97970.03
2022-09-17T16:22:47.856Z,97988.03
2022-09-17T16:25:14.984Z,97982.50
2022-09-17T16:28:15.467Z,97977.38
2022-09-17T16:30:47.650Z,97980.19
2022-09-17T16:33:16.826Z,97977.00
2022-09-17T16:35:44.241Z,97976.66
2022-09-17T16:38:12.831Z,97982.72
2022-09-17T16:40:42.727Z,97980.75
2022-09-17T16:43:09.959Z,97984.47
2022-09-17T16:45:37.206Z,97977.72
2022-09-17T16:48:06.031Z,97978.53
2022-09-17T16:50:34.331Z,97987.44
2022-09-17T16:53:04.860Z,97978.91
2022-09-17T16:55:32.407Z,97978.16
2022-09-17T16:57:59.385Z,97984.75
2022-09-17T17:00:27.273Z,97990.81
2022-09-17T17:02:56.891Z,97982.50
2022-09-17T17:05:26.057Z,97981.81
2022-09-17T17:07:55.241Z,97976.91
2022-09-17T17:10:28.536Z,97981.88
2022-09-17T17:12:56.427Z,97980.63
2022-09-17T17:15:23.800Z,97981.69
2022-09-17T17:17:51.288Z,97984.69
2022-09-17T17:20:19.221Z,97990.19
2022-09-17T17:22:46.201Z,97999.34
2022-09-17T17:25:14.684Z,98001.41
2022-09-17T17:27:42.452Z,98000.16
2022-09-17T17:30:16.554Z,98009.16
2022-09-17T17:32:44.970Z,98021.44
2022-09-17T17:35:12.157Z,98028.94
2022-09-17T17:37:39.323Z,98054.38
2022-09-17T17:40:10.062Z,98038.94
2022-09-17T17:42:39.483Z,98047.84
2022-09-17T17:45:08.354Z,98045.38
2022-09-17T17:47:38.659Z,98038.72
2022-09-17T17:50:06.302Z,98042.94
2022-09-17T17:52:33.251Z,98055.03
2022-09-17T17:55:00.253Z,98046.84
2022-09-17T17:57:27.202Z,98055.44
2022-09-17T17:59:54.117Z,98047.56
2022-09-17T18:02:21.291Z,98040.78
2022-09-17T18:04:49.023Z,98046.00
2022-09-17T18:07:16.090Z,98046.16
2022-09-17T18:09:43.126Z,98050.25
2022-09-17T18:12:10.110Z,98047.88
2022-09-17T18:14:37.108Z,98052.91
2022-09-17T18:17:04.047Z,98057.41
2022-09-17T18:19:30.982Z,98059.84
2022-09-17T18:21:57.911Z,98076.22
2022-09-17T18:24:24.906Z,98073.53
2022-09-17T18:26:51.870Z,98086.00
2022-09-17T18:29:19.412Z,98079.19
2022-09-17T18:31:46.497Z,98070.97
2022-09-17T18:34:16.135Z,98065.41
2022-09-17T18:36:50.758Z,98070.31
2022-09-17T18:39:57.497Z,98082.09
2022-09-17T18:42:05.497Z,98083.16
2022-09-17T18:44:32.672Z,98086.00
2022-09-17T18:46:59.686Z,98081.72
2022-09-17T18:49:26.662Z,98083.28
2022-09-17T18:51:53.543Z,98092.16
2022-09-17T18:54:20.484Z,98104.00
2022-09-17T18:56:47.410Z,98086.19
2022-09-17T18:59:14.335Z,98095.75
2022-09-17T19:01:43.141Z,98101.47
2022-09-17T19:04:11.174Z,98092.22
2022-09-17T19:06:38.151Z,98089.44
2022-09-17T19:09:06.241Z,98095.78
2022-09-17T19:11:36.166Z,98103.72
2022-09-17T19:14:03.195Z,98114.28
2022-09-17T19:16:30.571Z,98119.03
2022-09-17T19:18:57.696Z,98128.22
2022-09-17T19:21:24.608Z,98136.72
2022-09-17T19:23:52.784Z,98134.88
2022-09-17T19:26:22.119Z,98137.94
2022-09-17T19:28:52.680Z,98146.22
2022-09-17T19:31:19.820Z,98140.91
2022-09-17T19:33:47.571Z,98145.50
2022-09-17T19:36:16.970Z,98143.56
2022-09-17T19:38:44.730Z,98147.81
2022-09-17T19:41:15.345Z,98160.97
2022-09-17T19:43:42.953Z,98163.94
2022-09-17T19:46:17.720Z,98164.81
2022-09-17T19:48:50.570Z,98175.63
2022-09-17T19:51:18.633Z,98180.34
2022-09-17T19:53:45.992Z,98177.69
2022-09-17T19:56:16.494Z,98180.94
2022-09-17T19:58:43.810Z,98185.19
2022-09-17T20:01:11.518Z,98192.03
2022-09-17T20:03:42.816Z,98185.47
2022-09-17T20:06:16.921Z,98182.63
2022-09-17T20:08:46.972Z,98189.69
2022-09-17T20:11:15.014Z,98188.19
2022-09-17T20:13:42.014Z,98189.22
2022-09-17T20:16:18.825Z,98193.09
2022-09-17T20:18:46.677Z,98188.69
2022-09-17T20:21:16.764Z,98180.72
2022-09-17T20:23:44.021Z,98182.72
2022-09-17T20:26:12.519Z,98180.47
2022-09-17T20:28:43.514Z,98181.75
2022-09-17T20:31:14.406Z,98181.03
2022-09-17T20:33:42.144Z,98188.59
2022-09-17T20:36:14.653Z,98190.75
2022-09-17T20:39:22.052Z,98180.91
2022-09-17T20:41:31.215Z,98185.81
2022-09-17T20:43:58.641Z,98191.66
2022-09-17T20:46:29.389Z,98203.53
2022-09-17T20:48:58.178Z,98202.22
2022-09-17T20:51:29.287Z,98205.81
2022-09-17T20:54:01.460Z,98205.69
2022-09-17T20:56:31.669Z,98205.09
2022-09-17T20:59:12.923Z,98211.22
2022-09-17T21:01:44.530Z,98222.03
2022-09-17T21:04:17.325Z,98229.81
2022-09-17T21:06:45.811Z,98217.28
2022-09-17T21:09:17.346Z,98223.13
2022-09-17T21:11:46.403Z,98215.97
2022-09-17T21:14:15.808Z,98215.44
2022-09-17T21:16:43.341Z,98225.63
2022-09-17T21:19:12.590Z,98221.78
2022-09-17T21:21:40.025Z,98236.59
2022-09-17T21:24:10.005Z,98229.81
2022-09-17T21:26:37.524Z,98235.69
2022-09-17T21:29:04.613Z,98235.72
2022-09-17T21:31:34.085Z,98234.50
2022-09-17T21:34:04.225Z,98238.81
2022-09-17T21:36:36.611Z,98249.53
2022-09-17T21:39:13.524Z,98244.66
2022-09-17T21:41:42.949Z,98244.59
2022-09-17T21:44:13.926Z,98240.69
2022-09-17T21:46:42.413Z,98247.16
2022-09-17T21:49:10.350Z,98244.00
2022-09-17T21:51:40.582Z,98240.88
2022-09-17T21:54:13.734Z,98246.22
2022-09-17T21:56:40.884Z,98246.00
2022-09-17T21:59:11.570Z,98243.72
2022-09-17T22:01:46.423Z,98244.63
2022-09-17T22:04:17.444Z,98239.78
2022-09-17T22:06:45.511Z,98234.00
2022-09-17T22:09:19.865Z,98239.16
2022-09-17T22:11:47.358Z,98248.63
2022-09-17T22:14:19.541Z,98248.03
2022-09-17T22:16:50.949Z,98244.28
2022-09-17T22:19:19.819Z,98250.94
2022-09-17T22:21:51.332Z,98244.44
2022-09-17T22:24:20.908Z,98248.88
2022-09-17T22:26:56.445Z,98240.19
2022-09-17T22:29:26.528Z,98230.72
2022-09-17T22:31:53.561Z,98233.66
2022-09-17T22:34:22.662Z,98236.03
2022-09-17T22:36:50.338Z,98235.91
2022-09-17T22:39:20.806Z,98240.31
2022-09-17T22:41:48.354Z,98239.84
2022-09-17T22:44:18.383Z,98242.41
2022-09-17T22:46:48.482Z,98244.34
2022-09-17T22:49:16.159Z,98240.56
2022-09-17T22:51:44.892Z,98239.75
2022-09-17T22:54:14.204Z,98239.16
2022-09-17T22:56:42.311Z,98240.81
2022-09-17T22:59:09.791Z,98237.91
2022-09-17T23:01:37.562Z,98236.25
2022-09-17T23:04:05.926Z,98238.66
2022-09-17T23:06:36.480Z,98232.41
2022-09-17T23:09:04.240Z,98238.53
2022-09-17T23:11:38.133Z,98235.06
2022-09-17T23:14:11.566Z,98245.28
2022-09-17T23:16:45.533Z,98248.13
2022-09-17T23:19:13.573Z,98232.41
2022-09-17T23:21:41.456Z,98250.16
2022-09-17T23:24:11.337Z,98248.28
2022-09-17T23:26:38.271Z,98245.31
2022-09-17T23:29:05.903Z,98241.00
2022-09-17T23:31:35.242Z,98238.56
2022-09-17T23:34:03.807Z,98246.09
2022-09-17T23:36:33.395Z,98243.09
2022-09-17T23:39:02.609Z,98241.84
2022-09-17T23:41:32.678Z,98229.28
2022-09-17T23:44:02.745Z,98232.44
2022-09-17T23:46:33.187Z,98234.75
2022-09-17T23:49:00.513Z,98243.22
2022-09-17T23:51:30.944Z,98243.22
2022-09-17T23:53:59.198Z,98233.34
2022-09-17T23:56:28.208Z,98237.47
2022-09-17T23:58:56.856Z,98241.47
